Latest Weather Observations for Mount William

IDV60801

Issued at 10:05 am EST Wednesday 24 September 2014 (issued every 30 minutes, with the page automatically refreshed every 10 minutes)

About weather observations | Map of weather stations | Latest weather observations for VIC | Other Formats
Station Details ID: 079103 Name: MOUNT WILLIAM Lat: -37.30 Lon: 142.60 Height: 1150.0 m
Data from the previous 72 hours. | See also: Recent months at Mount William
Date/Time
EST
Temp
°C
App
Temp
°C
Dew
Point
Rel
Hum
%
Delta-T
°C
Wind Press
QNH
hPa
Press
MSL
hPa
Rain
since 9 am
mm
Dir
 
Spd
km/h
Gust
km/h
Spd
kts
Gust
kts
24/10:00am 13.3 11.1 6.4 63 3.5 NNW 7 15 4 8 - - 0.0
24/09:30am 11.4 9.1 5.9 69 2.7 NW 7 11 4 6 - - 0.0
24/09:00am 10.8 7.7 5.6 70 2.6 NW 11 15 6 8 - - 0.0
24/08:30am 10.8 7.7 5.6 70 2.6 NW 11 17 6 9 - - 0.0
24/08:00am 10.6 6.7 5.4 70 2.5 NW 15 20 8 11 - - 0.0
24/07:30am 10.6 5.9 5.2 69 2.6 NW 19 26 10 14 - - 0.0
24/07:00am 10.6 5.7 5.2 69 2.6 NW 20 28 11 15 - - 0.0
24/06:30am 10.3 5.4 5.1 70 2.5 NNW 20 30 11 16 - - 0.0
24/06:00am 10.6 4.5 4.9 68 2.8 N 26 41 14 22 - - 0.0
24/05:30am 9.7 4.7 3.7 66 2.8 NW 19 28 10 15 - - 0.0
24/05:00am 9.3 3.3 3.1 65 2.9 NW 24 35 13 19 - - 0.0
24/04:30am 9.8 4.1 2.9 62 3.2 NNW 22 30 12 16 - - 0.0
24/04:00am 9.9 3.4 2.7 61 3.3 NW 26 33 14 18 - - 0.0
24/03:30am 10.2 3.0 2.8 60 3.4 N 30 43 16 23 - - 0.0
24/03:04am 10.3 2.5 2.7 59 3.5 N 33 54 18 29 - - 0.0
24/03:00am 10.1 2.5 2.9 61 3.3 N 32 46 17 25 - - 0.0
24/02:32am 9.8 1.3 3.1 63 3.1 NNE 37 57 20 31 - - 0.0
24/02:30am 9.8 1.7 3.1 63 3.1 NNE 35 50 19 27 - - 0.0
24/02:25am 9.9 1.8 3.2 63 3.1 NNE 35 54 19 29 - - 0.0
24/02:00am 10.3 0.1 3.3 62 3.3 NNE 46 61 25 33 - - 0.0
24/01:30am 10.0 0.4 3.3 63 3.1 NNE 43 63 23 34 - - 0.0
24/01:16am 10.3 0.5 3.3 62 3.3 NNE 44 63 24 34 - - 0.0
24/01:00am 10.3 -0.3 3.3 62 3.3 NNE 48 67 26 36 - - 0.0
24/12:35am 10.5 0.0 3.5 62 3.3 NNE 48 67 26 36 - - 0.0
24/12:30am 10.5 0.0 3.5 62 3.3 NNE 48 65 26 35 - - 0.0
24/12:16am 10.6 0.1 3.6 62 3.3 NNE 48 69 26 37 - - 0.0
24/12:00am 10.6 1.1 3.9 63 3.2 NNE 43 59 23 32 - - 0.0
 
Date/Time
EST
Temp
°C
App
Temp
°C
Dew
Point
Rel
Hum
%
Delta-T
°C
Wind Press
QNH
hPa
Press
MSL
hPa
Rain
since 9 am
mm
Dir
 
Spd
km/h
Gust
km/h
Spd
kts
Gust
kts
23/11:30pm 10.5 1.1 4.2 65 3.0 NNE 43 65 23 35 - - 0.0
23/11:00pm 10.7 1.1 4.6 66 2.9 NNE 44 67 24 36 - - 0.0
23/10:32pm 10.8 2.9 4.5 65 3.0 NNE 35 57 19 31 - - 0.0
23/10:30pm 10.8 3.3 4.5 65 3.0 NNE 33 50 18 27 - - 0.0
23/10:13pm 11.2 2.6 4.4 63 3.3 NNE 39 57 21 31 - - 0.0
23/10:00pm 11.4 2.3 4.2 61 3.5 NNE 41 56 22 30 - - 0.0
23/09:30pm 12.0 3.5 3.3 55 4.1 NNE 37 56 20 30 - - 0.0
23/09:03pm 12.0 4.5 3.5 56 4.0 NNE 32 56 17 30 - - 0.0
23/09:00pm 12.1 4.4 3.3 55 4.2 NNE 33 52 18 28 - - 0.0
23/08:30pm 12.5 5.0 3.5 54 4.3 NNE 32 48 17 26 - - 0.0
23/08:10pm 12.8 5.7 3.5 53 4.4 NNE 30 48 16 26 - - 0.0
23/08:00pm 12.7 6.0 3.4 53 4.4 NNE 28 41 15 22 - - 0.0
23/07:42pm 13.0 6.1 2.8 50 4.8 NNE 28 48 15 26 - - 0.0
23/07:30pm 13.2 5.9 2.7 49 4.9 NNE 30 44 16 24 - - 0.0
23/07:00pm 13.5 6.2 2.7 48 5.1 NNE 30 39 16 21 - - 0.0
23/06:30pm 13.6 6.7 2.8 48 5.1 NNE 28 35 15 19 - - 0.0
23/06:00pm 13.7 7.6 2.6 47 5.2 NNE 24 35 13 19 - - 0.0
23/05:30pm 14.0 8.3 2.6 46 5.4 NNE 22 37 12 20 - - 0.0
23/05:00pm 14.3 9.0 2.9 46 5.4 NNE 20 30 11 16 - - 0.0
23/04:30pm 14.5 9.3 2.4 44 5.7 N 19 33 10 18 - - 0.0
23/04:00pm 16.2 10.8 2.6 40 6.5 N 20 35 11 19 - - 0.0
23/03:30pm 16.1 9.9 2.2 39 6.6 NNE 24 39 13 21 - - 0.0
23/03:00pm 16.4 10.9 4.1 44 6.1 NNE 22 39 12 21 - - 0.0
23/02:30pm 15.4 9.6 4.5 48 5.4 NNE 24 35 13 19 - - 0.0
23/02:00pm 14.6 9.5 4.3 50 5.1 NNE 20 32 11 17 - - 0.0
23/01:30pm 15.0 10.2 5.5 53 4.8 NNE 20 35 11 19 - - 0.0
23/01:00pm 16.0 11.3 6.2 52 5.1 NNE 20 41 11 22 - - 0.0
23/12:30pm 15.7 11.2 6.2 53 4.9 NNE 19 32 10 17 - - 0.0
23/12:00pm 15.4 10.7 5.0 50 5.2 N 19 37 10 20 - - 0.0
23/11:30am 15.5 10.7 5.4 51 5.1 N 20 33 11 18 - - 0.0
23/11:00am 15.3 10.3 3.5 45 5.7 N 19 35 10 19 - - 0.0
23/10:30am 14.3 8.5 2.5 45 5.6 N 22 37 12 20 - - 0.0
23/10:00am 14.0 7.3 1.6 43 5.7 N 26 41 14 22 - - 0.0
23/09:45am 13.8 6.4 1.8 44 5.6 N 30 50 16 27 - - 0.0
23/09:30am 13.2 5.0 0.3 41 5.8 N 33 48 18 26 - - 0.0
23/09:00am 12.8 4.6 0.5 43 5.5 N 33 57 18 31 - - 0.0
23/08:30am 12.5 4.6 0.9 45 5.2 N 32 52 17 28 - - 0.0
23/08:00am 11.8 3.8 1.7 50 4.6 N 33 57 18 31 - - 0.0
23/07:30am 11.0 2.7 2.1 54 4.1 N 35 57 19 31 - - 0.0
23/07:10am 10.5 2.1 1.3 53 4.1 N 35 56 19 30 - - 0.0
23/07:00am 10.4 1.9 1.2 53 4.1 N 35 52 19 28 - - 0.0
23/06:30am 10.0 1.0 0.1 50 4.3 N 37 59 20 32 - - 0.0
23/06:00am 9.8 0.8 -0.1 50 4.3 N 37 57 20 31 - - 0.0
23/05:35am 9.4 0.7 -0.8 49 4.3 N 35 56 19 30 - - 0.0
23/05:30am 9.6 0.9 -0.6 49 4.3 N 35 54 19 29 - - 0.0
23/05:02am 9.6 0.8 -1.1 47 4.5 N 35 56 19 30 - - 0.0
23/05:00am 9.6 0.8 -1.1 47 4.5 N 35 52 19 28 - - 0.0
23/04:30am 9.7 0.0 -1.9 44 4.8 N 39 59 21 32 - - 0.0
23/04:00am 9.8 1.2 -2.5 42 5.0 N 33 57 18 31 - - 0.0
23/03:30am 9.7 1.3 -1.3 46 4.6 N 33 59 18 32 - - 0.0
23/03:00am 10.2 1.0 -1.5 44 4.9 N 37 59 20 32 - - 0.0
23/02:30am 9.9 0.8 -0.3 49 4.4 N 37 56 20 30 - - 0.0
23/02:00am 10.1 1.1 -0.1 49 4.4 N 37 57 20 31 - - 0.0
23/01:34am 9.6 1.7 0.8 54 3.9 N 32 52 17 28 - - 0.0
23/01:30am 9.7 1.6 0.9 54 3.9 N 33 52 18 28 - - 0.0
23/01:10am 9.2 1.3 1.1 57 3.6 N 32 54 17 29 - - 0.0
23/01:00am 9.6 1.6 0.5 53 4.0 N 32 46 17 25 - - 0.0
23/12:30am 9.8 2.5 -0.1 50 4.3 N 28 41 15 22 - - 0.0
23/12:00am 10.3 2.4 -1.4 44 4.9 N 30 50 16 27 - - 0.0
 
Date/Time
EST
Temp
°C
App
Temp
°C
Dew
Point
Rel
Hum
%
Delta-T
°C
Wind Press
QNH
hPa
Press
MSL
hPa
Rain
since 9 am
mm
Dir
 
Spd
km/h
Gust
km/h
Spd
kts
Gust
kts
22/11:46pm 10.4 2.5 -1.3 44 4.9 N 30 50 16 27 - - 0.0
22/11:30pm 10.3 2.5 -1.1 45 4.8 N 30 43 16 23 - - 0.0
22/11:00pm 10.3 2.0 -0.2 48 4.5 NNE 33 46 18 25 - - 0.0
22/10:30pm 9.9 2.4 -1.2 46 4.7 NNE 28 39 15 21 - - 0.0
22/10:00pm 10.0 1.8 -0.8 47 4.6 NNE 32 48 17 26 - - 0.0
22/09:30pm 10.4 2.2 -1.0 45 4.8 NNE 32 44 17 24 - - 0.0
22/09:00pm 10.7 3.1 -2.0 41 5.3 NNE 28 37 15 20 - - 0.0
22/08:30pm 10.7 3.1 -2.0 41 5.3 NNE 28 37 15 20 - - 0.0
22/08:00pm 10.6 3.8 -2.1 41 5.3 NNE 24 30 13 16 - - 0.0
22/07:30pm 10.9 4.0 -2.5 39 5.5 NNE 24 28 13 15 - - 0.0
22/07:00pm 11.4 4.9 -2.8 37 5.8 NNE 22 30 12 16 - - 0.0
22/06:30pm 11.4 5.2 -2.8 37 5.8 NNE 20 26 11 14 - - 0.0
22/06:00pm 12.0 6.8 -2.6 36 6.1 N 15 24 8 13 - - 0.0
22/05:30pm 12.6 7.1 -2.4 35 6.3 N 17 28 9 15 - - 0.0
22/05:00pm 13.3 7.8 -1.8 35 6.5 N 17 24 9 13 - - 0.0
22/04:30pm 13.4 8.0 -1.7 35 6.5 NNE 17 28 9 15 - - 0.0
22/04:00pm 14.0 8.7 -0.8 36 6.5 N 17 26 9 14 - - 0.0
22/03:30pm 14.4 8.8 -0.1 37 6.5 NNE 19 28 10 15 - - 0.0
22/03:00pm 14.4 8.9 0.3 38 6.4 N 19 28 10 15 - - 0.0
22/02:30pm 14.6 9.0 0.1 37 6.5 NNE 19 28 10 15 - - 0.0
22/02:00pm 15.0 9.7 1.9 41 6.2 NNE 19 28 10 15 - - 0.0
22/01:30pm 14.6 9.8 2.5 44 5.7 NNE 17 24 9 13 - - 0.0
22/01:00pm 14.8 10.8 3.0 45 5.7 NNE 13 22 7 12 - - 0.0
22/12:30pm 13.9 9.6 0.9 41 5.9 NNW 13 22 7 12 - - 0.0
22/12:00pm 13.3 9.0 3.1 50 4.9 NNE 15 24 8 13 - - 0.0
22/11:30am 12.7 7.1 -2.7 34 6.4 NNW 17 30 9 16 - - 0.0
22/11:00am 12.9 7.9 1.6 46 5.2 NNW 17 26 9 14 - - 0.0
22/10:30am 12.7 7.2 0.8 44 5.4 NNW 19 28 10 15 - - 0.0
22/10:00am 11.5 5.6 -0.9 42 5.3 NNW 20 28 11 15 - - 0.0
22/09:30am 11.4 5.2 -3.1 36 5.9 NNW 20 30 11 16 - - 0.0
22/09:00am 11.5 3.8 -6.8 27 6.9 NNW 26 32 14 17 - - 0.0
22/08:30am 11.9 3.7 -13.1 16 8.2 NNW 26 32 14 17 - - 0.0
22/08:00am 10.3 4.5 -8.8 25 6.8 NW 15 26 8 14 - - 0.0
22/07:30am 8.5 2.6 -6.1 35 5.4 NW 17 24 9 13 - - 0.0
22/07:00am 7.6 1.7 -5.4 39 4.8 WNW 17 20 9 11 - - 0.0
22/06:30am 8.6 3.1 -10.3 25 6.3 NW 13 20 7 11 - - 0.0
22/06:00am 9.6 2.5 -17.4 13 7.8 NNW 19 24 10 13 - - 0.0
22/05:30am 9.8 2.6 -19.2 11 8.0 NNW 19 22 10 12 - - 0.0
22/05:00am 10.0 2.8 -20.2 10 8.2 NNW 19 22 10 12 - - 0.0
22/04:30am 7.7 1.2 -6.0 37 5.0 NW 20 24 11 13 - - 0.0
22/04:00am 7.3 0.4 -3.0 48 4.0 WNW 24 26 13 14 - - 0.0
22/03:30am 7.7 1.2 -6.0 37 5.0 NW 20 24 11 13 - - 0.0
22/03:00am 7.3 0.6 -1.4 54 3.5 WNW 24 28 13 15 - - 0.0
22/02:30am 7.5 0.5 -3.4 46 4.2 WNW 24 30 13 16 - - 0.0
22/02:00am 8.2 1.7 -7.9 31 5.7 WNW 19 20 10 11 - - 0.0
22/01:30am 9.8 3.1 -17.3 13 7.8 NNW 17 20 9 11 - - 0.0
22/01:00am 10.1 2.8 -22.6 8 8.4 N 19 22 10 12 - - 0.0
22/12:30am 10.5 3.9 -23.8 7 8.7 N 15 17 8 9 - - 0.0
22/12:00am 10.5 4.7 -22.3 8 8.6 N 11 13 6 7 - - 0.0
 
Date/Time
EST
Temp
°C
App
Temp
°C
Dew
Point
Rel
Hum
%
Delta-T
°C
Wind Press
QNH
hPa
Press
MSL
hPa
Rain
since 9 am
mm
Dir
 
Spd
km/h
Gust
km/h
Spd
kts
Gust
kts
21/11:30pm 10.4 5.0 -23.9 7 8.7 NNW 9 9 5 5 - - 0.0
21/11:00pm 10.6 4.8 -25.5 6 8.8 NNW 11 11 6 6 - - 0.0
21/10:30pm 9.9 4.9 -22.8 8 8.4 NNW 7 7 4 4 - - 0.0
21/10:00pm 8.2 3.4 -21.6 10 7.6 N 6 6 3 3 - - 0.0
21/09:30pm 6.6 2.6 -12.0 25 5.8 NNE 4 6 2 3 - - 0.0
21/09:00pm 6.7 3.3 -5.6 41 4.5 NNE 4 6 2 3 - - 0.0
21/08:30pm 5.7 2.3 -0.4 65 2.5 ENE 7 7 4 4 - - 0.0
21/08:00pm 6.6 3.4 -0.4 61 2.9 ENE 6 6 3 3 - - 0.0
21/07:30pm 7.1 3.8 -4.0 45 4.2 ENE 4 6 2 3 - - 0.0
21/07:00pm 7.8 5.1 -6.0 37 5.1 CALM 0 0 0 0 - - 0.0
21/06:30pm 8.5 5.6 -8.5 29 5.9 CALM 0 0 0 0 - - 0.0
21/06:00pm 10.2 8.8 3.5 63 3.1 CALM 0 0 0 0 - - 0.0
21/05:30pm 10.1 7.2 4.5 68 2.7 WSW 9 11 5 6 - - 0.0
21/05:00pm 10.0 6.3 4.6 69 2.6 WSW 13 17 7 9 - - 0.0
21/04:30pm 10.8 7.6 4.9 67 2.9 WSW 11 15 6 8 - - 0.0
21/04:00pm 11.2 8.1 5.5 68 2.8 W 11 19 6 10 - - 0.0
21/03:30pm 10.3 6.9 4.2 66 2.9 W 11 17 6 9 - - 0.0
21/03:00pm 11.2 7.7 5.5 68 2.8 WSW 13 19 7 10 - - 0.0
21/02:30pm 10.8 7.2 5.1 68 2.8 SW 13 19 7 10 - - 0.0
21/02:00pm 9.7 6.2 3.7 66 2.8 W 11 15 6 8 - - 0.0
21/01:30pm 9.2 5.9 4.6 73 2.2 WSW 11 19 6 10 - - 0.0
21/01:00pm 9.5 6.7 5.3 75 2.0 WSW 9 17 5 9 - - 0.0
21/12:30pm 8.3 4.6 4.7 78 1.7 SW 13 22 7 12 - - 0.0
21/12:00pm 8.2 4.8 4.2 76 1.9 WSW 11 19 6 10 - - 0.0
21/11:30am 8.4 4.6 3.7 72 2.2 WSW 13 19 7 10 - - 0.0
21/11:00am 9.3 5.3 -2.3 44 4.7 W 9 13 5 7 - - 0.0
21/10:30am 10.3 4.8 -9.9 23 7.0 WSW 13 15 7 8 - - 0.0

Other Formats:

Comma delimited format used in spreadsheet applications
http://www.bom.gov.au/fwo/IDV60801/IDV60801.94833.axf

JavaScript Object Notation format (JSON) in row-major order
http://www.bom.gov.au/fwo/IDV60801/IDV60801.94833.json